createdAt,value
2022-09-17T00:53:17.984Z,70.35
2022-09-17T00:56:04.637Z,70.17
2022-09-17T00:58:32.744Z,70.11
2022-09-17T01:01:00.093Z,69.92
2022-09-17T01:03:45.444Z,69.81
2022-09-17T01:06:37.527Z,69.76
2022-09-17T02:35:53.953Z,67.44
2022-09-17T02:38:28.592Z,67.21
2022-09-17T02:41:00.835Z,66.94
2022-09-17T02:43:27.666Z,67.14
2022-09-17T02:49:43.695Z,66.69
2022-09-17T03:23:30.039Z,65.78
2022-09-17T03:25:56.452Z,65.81
2022-09-17T03:28:23.331Z,65.98
2022-09-17T03:30:49.736Z,65.68
2022-09-17T03:33:16.491Z,66.01
2022-09-17T03:36:24.667Z,65.45
2022-09-17T03:39:16.011Z,66.50
2022-09-17T04:24:39.935Z,65.48
2022-09-17T04:27:07.185Z,65.62
2022-09-17T04:29:33.630Z,65.73
2022-09-17T04:32:00.026Z,66.02
2022-09-17T04:34:26.440Z,65.83
2022-09-17T04:36:52.851Z,65.99
2022-09-17T05:39:10.982Z,63.59
2022-09-17T05:41:37.404Z,63.88
2022-09-17T05:44:03.907Z,63.84
2022-09-17T05:46:30.401Z,64.72
2022-09-17T05:48:57.472Z,64.17
2022-09-17T05:51:24.220Z,63.25
2022-09-17T05:53:50.638Z,63.47
2022-09-17T05:56:17.028Z,62.66
2022-09-17T05:58:43.421Z,62.50
2022-09-17T06:01:15.989Z,64.08
2022-09-17T06:14:03.240Z,62.36
2022-09-17T06:16:29.819Z,62.09
2022-09-17T06:27:01.996Z,62.46
2022-09-17T06:29:28.444Z,62.52
2022-09-17T07:11:13.764Z,61.45
2022-09-17T07:13:40.185Z,62.80
2022-09-17T07:16:09.784Z,62.30
2022-09-17T07:18:37.022Z,63.41
2022-09-17T07:21:04.776Z,61.80
2022-09-17T07:23:35.382Z,61.25
2022-09-17T07:26:03.376Z,62.67
2022-09-17T07:28:29.838Z,61.45
2022-09-17T07:30:56.761Z,61.51
2022-09-17T07:33:24.696Z,61.53
2022-09-17T07:35:58.032Z,61.57
2022-09-17T07:38:24.928Z,62.01
2022-09-17T07:43:27.331Z,61.62
2022-09-17T07:46:00.953Z,60.84
2022-09-17T08:05:07.153Z,58.87
2022-09-17T08:07:33.666Z,58.63
2022-09-17T08:55:42.703Z,57.90
2022-09-17T08:58:15.012Z,58.12
2022-09-17T09:00:55.484Z,57.85
2022-09-17T09:03:34.423Z,58.22
2022-09-17T09:06:01.537Z,58.28
2022-09-17T09:08:40.691Z,57.62
2022-09-17T09:11:13.466Z,58.12
2022-09-17T09:13:48.211Z,57.60
2022-09-17T10:11:19.101Z,56.76
2022-09-17T10:13:45.504Z,56.21
2022-09-17T10:16:18.208Z,56.95
2022-09-17T10:18:45.246Z,56.30
2022-09-17T10:21:31.239Z,55.48
2022-09-17T10:23:58.078Z,56.59
2022-09-17T10:26:27.037Z,55.08
2022-09-17T10:52:01.920Z,53.56
2022-09-17T10:54:51.776Z,51.71
2022-09-17T10:57:33.205Z,51.19
2022-09-17T11:00:09.311Z,50.94
2022-09-17T11:03:00.404Z,52.49
2022-09-17T11:05:26.822Z,50.14
2022-09-17T11:07:54.470Z,49.49
2022-09-17T11:43:28.001Z,50.71
2022-09-17T11:46:02.818Z,50.94
2022-09-17T11:49:06.963Z,51.54
2022-09-17T11:51:33.471Z,52.41
2022-09-17T11:59:22.327Z,51.84
2022-09-17T12:01:51.949Z,50.92
2022-09-17T12:09:26.573Z,49.89
2022-09-17T12:11:53.051Z,49.89
2022-09-17T12:14:27.988Z,50.67
2022-09-17T12:16:59.350Z,51.62
2022-09-17T12:19:34.903Z,51.81
2022-09-17T12:24:37.044Z,52.30
2022-09-17T12:35:59.718Z,52.08
2022-09-17T13:03:00.737Z,51.98
2022-09-17T15:49:35.931Z,55.48
2022-09-17T15:52:31.221Z,56.06
2022-09-17T15:54:58.901Z,56.47
2022-09-17T15:57:27.404Z,56.07
2022-09-17T15:59:55.179Z,56.61
2022-09-17T16:02:28.623Z,55.82
2022-09-17T16:05:18.488Z,55.92
2022-09-17T16:07:45.504Z,56.01
2022-09-17T16:10:14.059Z,55.99
2022-09-17T16:12:41.130Z,55.79
2022-09-17T16:15:08.670Z,55.37
2022-09-17T16:17:44.722Z,55.54
2022-09-17T16:20:25.203Z,55.80
2022-09-17T16:22:53.036Z,55.50
2022-09-17T16:28:01.205Z,54.76
2022-09-17T16:30:27.784Z,55.49
2022-09-17T16:32:54.813Z,55.30
2022-09-17T16:35:24.126Z,55.98
2022-09-17T16:40:47.230Z,57.86
2022-09-17T16:43:14.376Z,57.37
2022-09-17T16:45:41.272Z,57.23
2022-09-17T16:48:07.917Z,56.21
2022-09-17T16:50:34.895Z,56.36
2022-09-17T16:53:05.315Z,56.19
2022-09-17T16:55:32.469Z,56.45
2022-09-17T16:57:59.202Z,56.02
2022-09-17T17:00:27.399Z,56.60
2022-09-17T17:02:56.301Z,58.04
2022-09-17T17:05:25.583Z,57.86
2022-09-17T17:07:54.969Z,56.96
2022-09-17T17:10:22.974Z,56.75
2022-09-17T17:12:49.832Z,57.45
2022-09-17T17:15:16.429Z,57.12
2022-09-17T17:17:43.121Z,57.58
2022-09-17T17:20:10.304Z,58.09
2022-09-17T17:22:37.829Z,58.00
2022-09-17T17:25:06.165Z,58.26
2022-09-17T17:27:33.326Z,58.62
2022-09-17T17:30:02.410Z,58.19
2022-09-17T17:32:28.961Z,58.02
2022-09-17T17:34:55.886Z,58.41
2022-09-17T17:37:23.545Z,59.27
2022-09-17T17:39:50.151Z,59.59
2022-09-17T17:42:16.898Z,62.07
2022-09-17T17:44:45.144Z,59.54
2022-09-17T17:47:11.716Z,58.69
2022-09-17T17:49:38.227Z,58.50
2022-09-17T17:52:05.964Z,59.06
2022-09-17T17:54:33.254Z,59.12
2022-09-17T17:56:59.874Z,58.43
2022-09-17T17:59:26.472Z,59.68
2022-09-17T18:01:53.108Z,58.34
2022-09-17T18:04:19.828Z,58.10
2022-09-17T18:06:48.171Z,58.21
2022-09-17T18:09:15.127Z,58.57
2022-09-17T18:11:41.835Z,58.07
2022-09-17T18:14:11.911Z,58.05
2022-09-17T18:16:38.760Z,59.14
2022-09-17T18:19:05.951Z,58.08
2022-09-17T18:21:32.954Z,59.27
2022-09-17T18:23:59.779Z,58.77
2022-09-17T18:26:27.960Z,60.17
2022-09-17T18:28:54.840Z,59.74
2022-09-17T18:31:21.833Z,59.77
2022-09-17T18:41:54.367Z,60.44
2022-09-17T18:44:21.986Z,61.17
2022-09-17T18:46:49.983Z,61.49
2022-09-17T18:49:17.243Z,61.60
2022-09-17T18:51:44.019Z,61.67
2022-09-17T18:54:12.750Z,61.89
2022-09-17T18:56:41.412Z,61.46
2022-09-17T18:59:08.750Z,62.18
2022-09-17T19:01:35.989Z,62.66
2022-09-17T19:04:03.152Z,62.44
2022-09-17T19:06:32.193Z,62.75
2022-09-17T19:09:01.229Z,62.51
2022-09-17T19:11:28.230Z,62.73
2022-09-17T19:13:55.309Z,62.61
2022-09-17T19:16:22.300Z,62.21
2022-09-17T19:18:55.229Z,61.44
2022-09-17T19:21:21.946Z,61.21
2022-09-17T19:23:50.927Z,62.11
2022-09-17T19:26:23.308Z,62.74
2022-09-17T19:28:58.130Z,62.04
2022-09-17T19:31:25.042Z,61.89
2022-09-17T19:41:51.051Z,62.74
2022-09-17T19:44:17.682Z,62.12
2022-09-17T19:57:01.356Z,63.53
2022-09-17T19:59:27.896Z,63.82
2022-09-17T20:01:54.507Z,64.43
2022-09-17T20:07:01.588Z,63.45
2022-09-17T20:09:28.202Z,63.83
2022-09-17T20:11:54.914Z,64.24
2022-09-17T20:14:21.492Z,64.76
2022-09-17T20:16:48.057Z,65.49
2022-09-17T20:19:16.759Z,65.56
2022-09-17T20:21:43.317Z,65.42
2022-09-17T20:24:09.956Z,66.13
2022-09-17T20:43:20.544Z,65.82
2022-09-17T20:45:54.817Z,66.07
2022-09-17T20:48:21.875Z,66.33
2022-09-17T20:50:58.429Z,65.96
2022-09-17T20:53:26.080Z,66.10
2022-09-17T20:56:04.387Z,66.19
2022-09-17T20:58:34.348Z,66.47
2022-09-17T21:01:13.577Z,66.42
2022-09-17T21:03:41.403Z,66.08
2022-09-17T21:06:08.349Z,66.47
2022-09-17T21:19:57.967Z,65.46
2022-09-17T21:22:24.728Z,65.26
2022-09-17T21:24:51.282Z,65.69
2022-09-17T21:27:17.858Z,65.39
2022-09-17T21:29:44.444Z,65.12
2022-09-17T21:46:11.013Z,64.19
2022-09-17T21:48:50.249Z,64.87
2022-09-17T21:51:22.051Z,64.87
2022-09-17T21:56:37.934Z,65.24
2022-09-17T21:59:35.712Z,66.44
2022-09-17T22:02:21.298Z,65.34
2022-09-17T22:04:47.930Z,66.84
2022-09-17T22:07:14.481Z,66.96
2022-09-17T22:09:41.131Z,67.28
2022-09-17T22:12:07.780Z,68.72
2022-09-17T22:14:34.399Z,68.49
2022-09-17T22:17:07.016Z,69.47
2022-09-17T22:19:34.245Z,68.78
2022-09-17T22:22:00.822Z,69.20
2022-09-17T22:24:28.916Z,69.65
2022-09-17T22:26:58.416Z,69.01
2022-09-17T22:29:27.188Z,68.31
2022-09-17T22:32:22.699Z,68.93
2022-09-17T22:35:13.418Z,68.03
2022-09-17T22:37:40.002Z,68.10
2022-09-17T22:40:07.302Z,67.49
2022-09-17T22:42:33.960Z,67.41
2022-09-17T22:45:00.501Z,67.68
2022-09-17T22:47:27.015Z,67.83
2022-09-17T22:49:53.638Z,68.09
2022-09-17T22:52:26.075Z,67.51
2022-09-17T22:54:52.606Z,67.22
2022-09-17T22:57:19.130Z,68.19
2022-09-17T22:59:45.685Z,68.37
2022-09-17T23:02:12.232Z,69.16
2022-09-17T23:04:38.846Z,69.20
2022-09-17T23:07:17.769Z,69.45
2022-09-17T23:09:56.353Z,69.60
2022-09-17T23:12:22.912Z,69.93
2022-09-17T23:14:50.764Z,69.91
2022-09-17T23:17:17.340Z,69.63
2022-09-17T23:19:43.861Z,69.95
2022-09-17T23:22:10.498Z,70.05
2022-09-17T23:24:55.405Z,69.48
2022-09-17T23:27:21.945Z,69.64
2022-09-17T23:29:48.491Z,69.63
2022-09-17T23:32:15.027Z,68.78
2022-09-17T23:34:41.979Z,68.80
2022-09-17T23:37:08.525Z,68.72
2022-09-17T23:39:35.073Z,68.97
2022-09-17T23:50:35.425Z,66.84
2022-09-17T23:53:01.981Z,67.60
2022-09-17T23:58:03.886Z,68.13
